Ikke nødvendig med spesiell oppmerksomhet.   -   Det er ingen advarsler.

Nearby METAR Reports

 

ENRY - Rygge (nor-Afb), Norway
Distance from station: SØ 12km
Oppdatert: 11/08/2020 19:50
Klart
Klart
 Vind fra SØ
Vind: SØ 7 km/h
Temperatur: 15°C
Duggpunkt: 14°C
Fuktighet: 94%
Barometer: 1024 hPa
Clouds: Klart
Visibility: 10 km
2020/08/12 02:50 ENRY 120250Z AUTO 14004KT 9999NDV NCD 15/14 Q1024
ENTO - Torp (civ/Nor-Af, Norway
Distance from station: SV 34km
Oppdatert: 11/08/2020 19:50
Klart
Klart
 Vind fra calm
Vind: Stille
Temperatur: 14°C
Duggpunkt: 14°C
Fuktighet: 100%
Barometer: 1024 hPa
Clouds: Klart
Visibility: 10 km
2020/08/12 02:50 ENTO 120250Z AUTO 00000KT 9999 NCD 14/14 Q1024
 
ENNO - Notodden, Norway
Distance from station: V 80km
Oppdatert: 11/08/2020 08:50
NOT Current
Klart
Klart
 Vind fra ØSØ
Vind: ØSØ 13 km/h
Temperatur: 25°C
Duggpunkt: 16°C
Fuktighet: 57%
Barometer: 1024 hPa
Oversikt: Klart
Visibility: greater than 10 km
2020/08/11 15:50 ENNO 111550Z 12007KT CAVOK 25/16 Q1024
ENGM - Oslo/Gardermoen, Norway
Distance from station: NNØ 88km
Oppdatert: 11/08/2020 19:50
Tåkebanker, Few clouds
Tåkebanker, Few clouds
 Vind fra varies
Vind: varies 2 km/h
Temperatur: 14°C
Duggpunkt: 13°C
Fuktighet: 94%
Barometer: 1024 hPa
Oversikt: Patches of Fog
Clouds: Few Clouds
Visibility: 9 km
Cloud details: Few Clouds 91 m
2020/08/12 02:50 ENGM 120250Z VRB01KT 9000 BCFG FEW003 14/13 Q1024
 
ESOK - Karlstad North, Sweden
Distance from station: Ø 153km
Oppdatert: 11/08/2020 19:50
Klart
Klart
 Vind fra NØ
Vind: NØ 2 km/h
Temperatur: 10°C
Duggpunkt: 10°C
Fuktighet: 100%
Barometer: 1025 hPa
Clouds: Klart
Visibility: 10 km
2020/08/12 02:50 ESOK 120250Z AUTO 04001KT 9999 R03///// R21/P1500N NCD 10/10 Q1025
ESST - Torsby, Sweden
Distance from station: ØNØ 154km
Oppdatert: 11/08/2020 19:50
Tåke, Delvis skyet
Tåke, Delvis skyet
 Vind fra calm
Vind: Stille
Temperatur: 10°C
Duggpunkt: 10°C
Fuktighet: 100%
Barometer: 1025 hPa
Oversikt: Tåke
Clouds: Delvis skyet
Visibility: 0 km
Cloud details: Delvis skyet 30 m
2020/08/12 02:50 ESST 120250Z AUTO 00000KT 0100 R16/1500D R34/0275N FG SCT001/// 10/10 Q1025
 
ESGT - Trollhattan (pvt, Sweden
Distance from station: SØ 159km
Oppdatert: 11/08/2020 19:50
Delvis skyet
Delvis skyet
 Vind fra varies
Vind: varies 4 km/h
Temperatur: 13°C
Duggpunkt: 12°C
Fuktighet: 94%
Barometer: 1024 hPa
Clouds: Delvis skyet
Visibility: 10 km
Cloud details: Delvis skyet 1859 m
2020/08/12 02:50 ESGT 120250Z AUTO VRB02KT 9999 R15/P2000N R33///// SCT061/// 13/12 Q1024
ESIB - Satenas (swe-Afb, Sweden
Distance from station: SØ 164km
Oppdatert: 11/08/2020 19:50
Few Clouds
Few Clouds
 Vind fra Ø
Vind: Ø 6 km/h
Temperatur: 13°C
Duggpunkt: 12°C
Fuktighet: 94%
Barometer: 1024 hPa
Clouds: Few Clouds
Visibility: 10 km
Cloud details: Few Clouds 1890 m
2020/08/12 02:50 ESIB 120250Z AUTO 09003KT 9999 FEW062/// 13/12 Q1024
 
ENCN - Kristiansand/Kje, Norway
Distance from station: SV 202km
Oppdatert: 11/08/2020 19:50
Klart
Klart
 Vind fra NØ
Vind: NØ 11 km/h
Temperatur: 14°C
Duggpunkt: 13°C
Fuktighet: 94%
Barometer: 1024 hPa
Clouds: Klart
Visibility: 10 km
2020/08/12 02:50 ENCN 120250Z AUTO 04006KT 9999 NCD 14/13 Q1024
EKSN - Sindal Airport, Denmark
Distance from station: S 217km
Oppdatert: 11/08/2020 05:50
NOT Current
Delvis skyet
Delvis skyet
 Vind fra ØSØ
Vind: ØSØ 20 km/h
Temperatur: 23°C
Duggpunkt: 17°C
Fuktighet: 69%
Barometer: 1024 hPa
Clouds: Delvis skyet
Visibility: 10 km
Cloud details: Few Clouds 549 m
Delvis skyet 1981 m
2020/08/11 12:50 EKSN 111250Z 12011KT 080V140 9999 FEW018 SCT065 23/17 Q1024
 
ESGG - Goteborg/Landvet, Sweden
Distance from station: SSØ 220km
Oppdatert: 11/08/2020 19:50
Klart
Klart
 Vind fra SSØ
Vind: SSØ 11 km/h
Temperatur: 15°C
Duggpunkt: 12°C
Fuktighet: 82%
Barometer: 1025 hPa
Oversikt: Klart
Visibility: greater than 10 km
2020/08/12 02:50 ESGG 120250Z 15006KT CAVOK 15/12 Q1025
ESGR - Skovde Airport, Sweden
Distance from station: ØSØ 221km
Oppdatert: 11/08/2020 19:50
Klart
Klart
 Vind fra SSV
Vind: SSV 4 km/h
Clouds: Klart
Visibility: 10 km
2020/08/12 02:50 ESGR 120250Z AUTO 21002KT 9999 NCD 10/// Q1025
 
ESOE - Orebro (private), Sweden
Distance from station: Ø 252km
Oppdatert: 11/08/2020 19:50
Klart
Klart
 Vind fra S
Vind: S 7 km/h
Temperatur: 11°C
Duggpunkt: 9°C
Fuktighet: 88%
Barometer: 1025 hPa
Clouds: Klart
Visibility: 10 km
2020/08/12 02:50 ESOE 120250Z AUTO 17004KT 9999 NCD 11/09 Q1025
EKYT - Alborg, Denmark
Distance from station: S 264km
Oppdatert: 11/08/2020 19:50
Klart
Klart
 Vind fra Ø
Vind: Ø 13 km/h
Temperatur: 15°C
Duggpunkt: 15°C
Fuktighet: 100%
Barometer: 1023 hPa
Clouds: Klart
Visibility: 10 km
2020/08/12 02:50 EKYT 120250Z AUTO 09007KT 9999 NCD 15/15 Q1023
 
ENSG - Sogndal/Haukasen, Norway
Distance from station: NV 269km
Oppdatert: 11/08/2020 12:20
NOT Current
Few Clouds
Few Clouds
 Vind fra calm
Vind: Stille
Temperatur: 16°C
Duggpunkt: 12°C
Fuktighet: 77%
Barometer: 1025 hPa
Clouds: Few Clouds
Visibility: 10 km
Cloud details: Few Clouds 1829 m
2020/08/11 19:20 ENSG 111920Z 00000KT 9999 FEW060 16/12 Q1025 RMK WIND 3806FT 30004KT
ESGJ - Jonkoping Airpor, Sweden
Distance from station: SØ 273km
Oppdatert: 11/08/2020 19:50
Delvis skyet
Delvis skyet
 Vind fra S
Vind: S 7 km/h
Temperatur: 15°C
Duggpunkt: 11°C
Fuktighet: 77%
Barometer: 1025 hPa
Clouds: Delvis skyet
Visibility: 10 km
Cloud details: Few Clouds 1554 m
Delvis skyet 2743 m
2020/08/12 02:50 ESGJ 120250Z AUTO 18004KT 9999 FEW051/// SCT090/// 15/11 Q1025
 
ENZV - Stavanger/Sola(A, Norway
Distance from station: V 292km
Oppdatert: 11/08/2020 19:50
Klart
Klart
 Vind fra SØ
Vind: SØ 4 km/h
Temperatur: 16°C
Duggpunkt: 15°C
Fuktighet: 94%
Barometer: 1022 hPa
Oversikt: Klart
Visibility: greater than 10 km
2020/08/12 02:50 ENZV 120250Z 13002KT CAVOK 16/15 Q1022
ESSD - Borlange (swe-Af, Sweden
Distance from station: ØNØ 292km
Oppdatert: 11/08/2020 19:50
Overskyet
Overskyet
 Vind fra N
Vind: N 4 km/h
Temperatur: 13°C
Duggpunkt: 12°C
Fuktighet: 94%
Barometer: 1024 hPa
Clouds: Overskyet
Visibility: 10 km
Cloud details: Overskyet 2560 m
2020/08/12 02:50 ESSD 120250Z AUTO 36002KT 9999 OVC084/// 13/12 Q1024
 
ENSO - Stord/Soerstokke, Norway
Distance from station: V 300km
Oppdatert: 11/08/2020 10:20
NOT Current
Klart
Klart
 Vind fra NNV
Vind: NNV 9 km/h
Temperatur: 22°C
Duggpunkt: 13°C
Fuktighet: 57%
Barometer: 1023 hPa
Oversikt: Klart
Visibility: greater than 10 km
2020/08/11 17:20 ENSO 111720Z 33005KT 290V010 CAVOK 22/13 Q1023
ESCF - Linkoping/Malmen, Sweden
Distance from station: ØSØ 305km
Oppdatert: 11/08/2020 19:50
Klart
Klart
 Vind fra S
Vind: S 4 km/h
Temperatur: 11°C
Duggpunkt: 10°C
Fuktighet: 94%
Barometer: 1025 hPa
Clouds: Klart
Visibility: 10 km
2020/08/12 02:50 ESCF 120250Z AUTO 17002KT 9999 NCD 11/10 Q1025